createdAt,value
2019-06-08T00:01:54.290Z,15.35
2019-06-08T00:04:22.753Z,15.25
2019-06-08T00:06:50.211Z,15.65
2019-06-08T00:09:20.388Z,14.90
2019-06-08T00:11:46.496Z,15.23
2019-06-08T00:14:15.088Z,16.17
2019-06-08T00:16:42.456Z,15.70
2019-06-08T00:19:09.729Z,15.90
2019-06-08T00:21:37.026Z,15.60
2019-06-08T00:24:05.406Z,15.40
2019-06-08T00:26:32.981Z,15.80
2019-06-08T00:29:00.985Z,15.88
2019-06-08T00:31:28.243Z,15.70
2019-06-08T00:33:55.456Z,14.35
2019-06-08T00:36:23.085Z,15.45
2019-06-08T00:38:50.415Z,16.50
2019-06-08T00:41:20.234Z,15.70
2019-06-08T00:43:47.016Z,16.87
2019-06-08T00:46:15.760Z,17.37
2019-06-08T00:48:43.021Z,17.75
2019-06-08T00:51:10.615Z,17.17
2019-06-08T00:53:37.898Z,16.32
2019-06-08T00:56:05.137Z,16.55
2019-06-08T00:58:32.481Z,16.65
2019-06-08T01:01:00.034Z,15.65
2019-06-08T01:03:27.519Z,16.02
2019-06-08T01:05:54.827Z,17.50
2019-06-08T01:08:22.723Z,17.52
2019-06-08T01:10:51.144Z,17.17
2019-06-08T01:13:18.861Z,17.65
2019-06-08T01:15:46.274Z,16.97
2019-06-08T01:18:15.104Z,16.70
2019-06-08T01:20:42.411Z,17.73
2019-06-08T01:23:09.660Z,18.12
2019-06-08T01:25:36.877Z,17.45
2019-06-08T01:28:04.195Z,18.05
2019-06-08T01:30:32.231Z,18.25
2019-06-08T01:32:59.511Z,17.82
2019-06-08T01:35:26.985Z,18.52
2019-06-08T01:37:54.228Z,18.17
2019-06-08T01:40:21.472Z,18.25
2019-06-08T01:42:48.846Z,19.02
2019-06-08T01:45:32.963Z,19.50
2019-06-08T01:48:01.130Z,19.55
2019-06-08T01:50:28.481Z,19.55
2019-06-08T01:52:55.724Z,18.87
2019-06-08T01:55:25.060Z,19.25
2019-06-08T01:57:52.469Z,19.20
2019-06-08T02:00:29.665Z,19.70
2019-06-08T02:02:48.949Z,20.23
2019-06-08T02:05:16.246Z,19.30
2019-06-08T02:07:43.501Z,19.50
2019-06-08T02:10:10.814Z,20.55
2019-06-08T02:12:38.086Z,19.23
2019-06-08T02:15:05.399Z,20.25
2019-06-08T02:17:33.485Z,19.37
2019-06-08T02:20:00.740Z,20.90
2019-06-08T02:22:28.838Z,18.95
2019-06-08T02:24:56.212Z,18.15
2019-06-08T02:27:23.833Z,19.92
2019-06-08T02:29:51.109Z,19.77
2019-06-08T02:32:18.797Z,19.80
2019-06-08T02:34:46.050Z,19.00
2019-06-08T02:37:13.360Z,19.75
2019-06-08T02:39:40.642Z,20.32
2019-06-08T02:42:07.887Z,19.50
2019-06-08T02:44:36.373Z,19.98
2019-06-08T02:47:04.268Z,20.80
2019-06-08T02:49:33.237Z,20.10
2019-06-08T02:52:00.768Z,20.15
2019-06-08T02:54:29.972Z,20.17
2019-06-08T02:56:57.137Z,20.30
2019-06-08T02:59:25.994Z,20.50
2019-06-08T03:01:53.303Z,19.07
2019-06-08T03:04:21.278Z,21.07
2019-06-08T03:06:48.509Z,20.50
2019-06-08T03:09:15.955Z,21.17
2019-06-08T03:11:43.233Z,20.08
2019-06-08T03:14:10.464Z,20.08
2019-06-08T03:16:40.418Z,19.82
2019-06-08T03:19:21.041Z,19.57
2019-06-08T03:21:36.803Z,20.27
2019-06-08T03:24:05.182Z,19.00
2019-06-08T03:26:34.124Z,19.32
2019-06-08T03:29:02.487Z,18.87
2019-06-08T03:31:29.786Z,19.35
2019-06-08T03:33:57.415Z,18.62
2019-06-08T03:36:24.656Z,19.12
2019-06-08T03:38:52.944Z,18.15
2019-06-08T03:41:20.304Z,17.50
2019-06-08T03:43:47.541Z,18.35
2019-06-08T03:46:14.842Z,19.60
2019-06-08T03:48:43.946Z,19.55
2019-06-08T03:51:11.150Z,19.40
2019-06-08T03:53:40.042Z,19.65
2019-06-08T03:56:07.490Z,18.90
2019-06-08T03:58:36.585Z,19.90
2019-06-08T04:01:03.952Z,19.73
2019-06-08T04:03:31.160Z,20.52
2019-06-08T04:05:58.389Z,19.00
2019-06-08T04:08:25.662Z,18.50
2019-06-08T04:10:52.930Z,18.45
2019-06-08T04:13:20.198Z,18.82
2019-06-08T04:15:47.538Z,19.25
2019-06-08T04:18:14.768Z,18.32
2019-06-08T04:20:45.034Z,18.00
2019-06-08T04:23:11.214Z,19.07
2019-06-08T04:25:38.890Z,18.70
2019-06-08T04:28:07.467Z,17.37
2019-06-08T04:30:34.768Z,18.65
2019-06-08T04:33:02.055Z,19.45
2019-06-08T04:35:30.059Z,19.17
2019-06-08T04:37:57.584Z,18.17
2019-06-08T04:40:24.774Z,18.45
2019-06-08T04:42:52.387Z,18.12
2019-06-08T04:45:19.756Z,19.27
2019-06-08T04:47:48.210Z,17.92
2019-06-08T04:50:22.624Z,18.65
2019-06-08T04:52:47.162Z,18.30
2019-06-08T04:55:14.343Z,17.55
2019-06-08T04:57:43.304Z,18.25
2019-06-08T05:00:12.988Z,19.07
2019-06-08T05:02:42.251Z,18.32
2019-06-08T05:05:11.104Z,18.10
2019-06-08T05:07:39.180Z,17.12
2019-06-08T05:10:06.938Z,17.90
2019-06-08T05:12:34.388Z,17.55
2019-06-08T05:15:02.345Z,18.12
2019-06-08T05:17:30.742Z,18.48
2019-06-08T05:19:58.006Z,18.65
2019-06-08T05:22:25.309Z,18.17
2019-06-08T05:24:52.551Z,17.55
2019-06-08T05:27:20.510Z,18.77
2019-06-08T05:29:47.806Z,17.73
2019-06-08T05:32:15.029Z,18.07
2019-06-08T05:34:43.363Z,17.10
2019-06-08T05:37:11.248Z,18.23
2019-06-08T05:39:39.532Z,18.15
2019-06-08T05:42:07.229Z,18.90
2019-06-08T05:44:34.623Z,19.17
2019-06-08T05:47:01.859Z,18.67
2019-06-08T05:49:29.166Z,18.35
2019-06-08T05:51:56.564Z,19.02
2019-06-08T05:54:23.808Z,18.32
2019-06-08T05:56:51.106Z,17.07
2019-06-08T05:59:18.406Z,18.82
2019-06-08T06:01:46.713Z,18.40
2019-06-08T06:04:14.482Z,17.82
2019-06-08T06:06:42.424Z,18.27
2019-06-08T06:09:10.047Z,18.00
2019-06-08T06:11:37.846Z,18.07
2019-06-08T06:14:05.158Z,18.77
2019-06-08T06:16:32.396Z,17.65
2019-06-08T06:18:59.623Z,19.00
2019-06-08T06:21:27.050Z,18.48
2019-06-08T06:23:54.272Z,17.32
2019-06-08T06:26:21.502Z,18.20
2019-06-08T06:28:49.663Z,18.62
2019-06-08T06:31:17.146Z,17.00
2019-06-08T06:33:45.900Z,17.10
2019-06-08T06:36:13.343Z,16.27
2019-06-08T06:38:41.925Z,16.60
2019-06-08T06:41:09.418Z,16.80
2019-06-08T06:43:36.706Z,15.08
2019-06-08T06:46:03.985Z,14.83
2019-06-08T06:48:34.041Z,16.87
2019-06-08T06:51:01.307Z,17.70
2019-06-08T06:53:28.620Z,16.45
2019-06-08T06:55:55.937Z,15.68
2019-06-08T06:58:23.234Z,15.72
2019-06-08T07:00:51.522Z,16.40
2019-06-08T07:03:18.811Z,16.45
2019-06-08T07:05:46.104Z,15.90
2019-06-08T07:08:13.344Z,17.70
2019-06-08T07:10:40.671Z,16.05
2019-06-08T07:13:07.935Z,16.12
2019-06-08T07:15:41.631Z,14.45
2019-06-08T07:18:04.195Z,15.45
2019-06-08T07:20:31.466Z,13.13
2019-06-08T07:22:58.997Z,14.58
2019-06-08T07:25:26.993Z,14.38
2019-06-08T07:27:55.132Z,14.47
2019-06-08T07:30:22.587Z,14.65
2019-06-08T07:32:50.902Z,13.78
2019-06-08T07:35:18.515Z,14.18
2019-06-08T07:37:47.283Z,16.07
2019-06-08T07:40:15.961Z,14.43
2019-06-08T07:42:43.240Z,14.55
2019-06-08T07:45:10.471Z,15.35
2019-06-08T07:47:38.161Z,13.50
2019-06-08T07:50:06.924Z,14.00
2019-06-08T07:52:34.161Z,14.03
2019-06-08T07:55:01.383Z,13.68
2019-06-08T07:57:29.263Z,13.18
2019-06-08T07:59:56.588Z,13.93
2019-06-08T08:02:23.862Z,12.03
2019-06-08T08:04:52.430Z,12.00
2019-06-08T08:07:20.234Z,10.40
2019-06-08T08:09:48.645Z,11.22
2019-06-08T08:12:15.991Z,12.68
2019-06-08T08:14:43.277Z,12.30
2019-06-08T08:17:10.492Z,13.55
2019-06-08T08:19:37.792Z,12.88
2019-06-08T08:22:19.647Z,11.53
2019-06-08T08:24:34.055Z,10.82
2019-06-08T08:27:03.609Z,11.68
2019-06-08T08:29:31.384Z,11.57
2019-06-08T08:32:01.511Z,10.58
2019-06-08T08:34:28.394Z,11.55
2019-06-08T08:37:01.371Z,12.55
2019-06-08T08:39:27.577Z,11.35
2019-06-08T08:41:57.253Z,15.53
2019-06-08T08:44:24.394Z,11.85
2019-06-08T08:46:53.563Z,12.68
2019-06-08T08:49:20.791Z,11.78
2019-06-08T08:51:48.101Z,12.65
2019-06-08T08:54:15.333Z,11.43
2019-06-08T08:56:42.669Z,11.38
2019-06-08T08:59:10.696Z,11.60
2019-06-08T09:01:38.418Z,12.15
2019-06-08T09:04:08.599Z,11.30
2019-06-08T09:06:34.787Z,12.53
2019-06-08T09:09:03.584Z,11.00
2019-06-08T09:11:31.954Z,10.43
2019-06-08T09:14:05.125Z,12.00
2019-06-08T09:16:28.756Z,11.53
2019-06-08T09:18:59.327Z,10.70
2019-06-08T09:21:27.933Z,10.98
2019-06-08T09:23:55.754Z,10.95
2019-06-08T09:26:23.429Z,10.28
2019-06-08T09:28:51.691Z,11.05
2019-06-08T09:31:19.792Z,11.05
2019-06-08T09:33:53.325Z,10.10
2019-06-08T09:36:17.772Z,10.18
2019-06-08T09:38:47.771Z,9.78
2019-06-08T09:41:14.437Z,10.05
2019-06-08T09:43:41.827Z,9.93
2019-06-08T09:46:09.462Z,9.65
2019-06-08T09:48:38.208Z,9.25
2019-06-08T09:51:09.013Z,8.88
2019-06-08T09:53:40.535Z,9.95
2019-06-08T09:56:06.458Z,8.93
2019-06-08T09:58:33.057Z,9.83
2019-06-08T10:01:04.230Z,8.93
2019-06-08T10:03:31.090Z,9.38
2019-06-08T10:05:59.392Z,9.03
2019-06-08T10:08:28.319Z,8.95
2019-06-08T10:10:59.205Z,9.95
2019-06-08T10:13:28.003Z,9.33
2019-06-08T10:15:56.274Z,9.40
2019-06-08T10:18:24.598Z,8.90
2019-06-08T10:20:54.705Z,9.50
2019-06-08T10:23:42.381Z,9.63
2019-06-08T10:26:09.615Z,10.60
2019-06-08T10:28:38.886Z,9.80
2019-06-08T10:31:06.938Z,8.70
2019-06-08T10:33:34.266Z,9.75
2019-06-08T10:36:02.337Z,9.73
2019-06-08T10:38:30.661Z,9.55
2019-06-08T10:41:10.134Z,9.05
2019-06-08T10:43:31.135Z,9.25
2019-06-08T10:46:03.074Z,9.18
2019-06-08T10:48:28.670Z,9.18
2019-06-08T10:50:58.553Z,9.10
2019-06-08T10:53:28.446Z,8.73
2019-06-08T10:55:57.856Z,9.00
2019-06-08T10:58:24.729Z,8.43
2019-06-08T11:00:51.991Z,8.53
2019-06-08T11:03:19.245Z,8.65
2019-06-08T11:05:48.327Z,8.60
2019-06-08T11:08:16.800Z,9.58
2019-06-08T11:10:47.391Z,7.72
2019-06-08T11:13:15.219Z,7.90
2019-06-08T11:15:42.790Z,8.00
2019-06-08T11:18:13.586Z,7.92
2019-06-08T11:20:41.052Z,8.30
2019-06-08T11:23:12.270Z,7.97
2019-06-08T11:25:37.657Z,7.87
2019-06-08T11:28:14.652Z,7.78
2019-06-08T11:30:38.533Z,7.75
2019-06-08T11:33:08.530Z,8.03
2019-06-08T11:35:34.865Z,8.00
2019-06-08T11:38:02.264Z,8.35
2019-06-08T11:40:30.442Z,7.87
2019-06-08T11:43:00.513Z,8.33
2019-06-08T11:45:37.836Z,8.48
2019-06-08T11:48:08.756Z,8.05
2019-06-08T11:50:42.194Z,7.95
2019-06-08T11:53:14.847Z,8.53
2019-06-08T11:55:42.510Z,8.70
2019-06-08T11:58:13.846Z,8.58
2019-06-08T12:03:11.502Z,9.13
2019-06-08T12:05:42.834Z,10.10
2019-06-08T12:08:12.785Z,10.20
2019-06-08T12:10:48.956Z,10.18
2019-06-08T12:13:20.776Z,11.75
2019-06-08T12:15:50.029Z,12.40
2019-06-08T12:18:20.122Z,12.65
2019-06-08T12:20:52.906Z,14.60
2019-06-08T12:23:23.533Z,13.25
2019-06-08T12:25:56.135Z,13.80
2019-06-08T12:28:28.056Z,12.15
2019-06-08T12:31:02.233Z,12.00
2019-06-08T12:33:38.958Z,11.60
2019-06-08T12:36:13.608Z,11.90
2019-06-08T12:38:43.822Z,11.75
2019-06-08T12:41:14.131Z,11.83
2019-06-08T12:43:43.631Z,11.93
2019-06-08T12:46:16.305Z,12.18
2019-06-08T12:48:43.361Z,12.55
2019-06-08T12:51:15.186Z,10.82
2019-06-08T12:53:43.737Z,10.63
2019-06-08T12:56:12.084Z,10.15
2019-06-08T12:58:40.129Z,9.95
2019-06-08T13:01:08.188Z,9.60
2019-06-08T13:03:37.683Z,8.98
2019-06-08T13:06:07.881Z,10.05
2019-06-08T13:08:34.861Z,8.20
2019-06-08T13:11:02.075Z,8.08
2019-06-08T13:13:29.446Z,6.55
2019-06-08T13:15:58.054Z,12.00
2019-06-08T13:18:25.393Z,7.75
2019-06-08T13:20:52.673Z,5.85
2019-06-08T13:23:21.277Z,5.03
2019-06-08T13:25:48.657Z,5.75
2019-06-08T13:47:38.311Z,5.50
2019-06-08T13:50:08.270Z,6.83
2019-06-08T13:52:38.168Z,6.20
2019-06-08T13:55:05.599Z,6.00
2019-06-08T13:57:32.865Z,5.85
2019-06-08T14:00:00.188Z,5.65
2019-06-08T14:02:30.925Z,6.30
2019-06-08T14:04:58.956Z,5.80
2019-06-08T14:07:31.783Z,6.00
2019-06-08T14:09:58.266Z,6.62
2019-06-08T14:12:28.216Z,7.35
2019-06-08T14:14:54.562Z,7.00
2019-06-08T14:17:24.160Z,7.78
2019-06-08T14:19:51.644Z,7.55
2019-06-08T14:22:22.653Z,7.05
2019-06-08T14:24:48.136Z,7.80
2019-06-08T14:27:15.346Z,8.20
2019-06-08T14:29:42.652Z,8.38
2019-06-08T14:32:10.904Z,7.78
2019-06-08T14:34:38.810Z,8.05
2019-06-08T14:37:08.477Z,9.10
2019-06-08T14:39:35.728Z,8.43
2019-06-08T14:42:02.962Z,8.88
2019-06-08T14:44:32.102Z,8.33
2019-06-08T14:47:02.264Z,9.03
2019-06-08T14:49:34.307Z,9.23
2019-06-08T14:51:58.993Z,9.20
2019-06-08T14:54:29.032Z,8.78
2019-06-08T14:56:57.552Z,8.93
2019-06-08T14:59:25.497Z,9.00
2019-06-08T15:01:52.835Z,9.08
2019-06-08T15:04:24.951Z,9.43
2019-06-08T15:06:49.462Z,9.40
2019-06-08T15:09:17.819Z,9.98
2019-06-08T15:11:45.150Z,9.35
2019-06-08T15:14:12.440Z,9.40
2019-06-08T15:16:41.802Z,9.98
2019-06-08T15:19:08.690Z,9.33
2019-06-08T15:21:38.005Z,9.83
2019-06-08T15:24:05.336Z,8.83
2019-06-08T15:26:39.607Z,8.68
2019-06-08T15:29:01.896Z,8.58
2019-06-08T15:31:31.093Z,8.60
2019-06-08T15:33:59.908Z,8.55
2019-06-08T15:36:29.520Z,9.15
2019-06-08T15:38:56.787Z,9.08
2019-06-08T15:41:24.584Z,8.85
2019-06-08T15:43:52.674Z,9.48
2019-06-08T15:46:19.936Z,9.45
2019-06-08T15:48:48.570Z,8.93
2019-06-08T15:51:16.071Z,9.00
2019-06-08T15:53:44.886Z,13.50
2019-06-08T15:56:14.372Z,10.78
2019-06-08T15:58:41.829Z,9.90
2019-06-08T16:01:09.047Z,10.00
2019-06-08T16:03:38.093Z,9.28
2019-06-08T16:06:05.389Z,8.93
2019-06-08T16:08:36.548Z,9.00
2019-06-08T16:11:01.797Z,9.38
2019-06-08T16:15:54.371Z,31.93
2019-06-08T16:18:22.822Z,11.33
2019-06-08T16:20:52.137Z,10.08
2019-06-08T16:23:23.089Z,9.73
2019-06-08T16:26:01.493Z,10.78
2019-06-08T16:28:30.423Z,10.72
2019-06-08T16:30:57.979Z,10.20
2019-06-08T16:33:27.246Z,9.45
2019-06-08T16:35:55.559Z,9.63
2019-06-08T16:38:38.355Z,10.30
2019-06-08T16:41:17.156Z,12.10
2019-06-08T16:43:46.799Z,12.80
2019-06-08T16:46:14.456Z,12.90
2019-06-08T16:48:44.231Z,14.13
2019-06-08T16:51:29.290Z,16.23
2019-06-08T16:54:32.848Z,15.65
2019-06-08T16:57:10.534Z,15.78
2019-06-08T16:59:38.635Z,16.30
2019-06-08T17:02:06.785Z,15.63
2019-06-08T17:04:35.025Z,14.10
2019-06-08T17:07:02.466Z,12.58
2019-06-08T17:09:32.603Z,11.80
2019-06-08T17:12:00.763Z,13.55
2019-06-08T17:14:29.870Z,11.57
2019-06-08T17:16:57.218Z,11.85
2019-06-08T17:19:24.441Z,10.93
2019-06-08T17:21:51.709Z,12.13
2019-06-08T17:24:18.957Z,11.88
2019-06-08T17:26:46.187Z,11.93
2019-06-08T17:29:13.494Z,12.23
2019-06-08T17:31:41.377Z,14.33
2019-06-08T17:34:08.815Z,13.32
2019-06-08T17:36:36.558Z,14.00
2019-06-08T17:39:05.058Z,15.30
2019-06-08T17:41:32.394Z,16.50
2019-06-08T17:43:59.703Z,16.32
2019-06-08T17:46:29.473Z,17.87
2019-06-08T17:49:01.436Z,17.30
2019-06-08T17:51:29.013Z,18.25
2019-06-08T17:53:56.312Z,17.90
2019-06-08T17:56:24.090Z,19.35
2019-06-08T17:58:51.329Z,19.70
2019-06-08T18:01:18.931Z,20.37
2019-06-08T18:03:48.284Z,19.75
2019-06-08T18:06:17.831Z,18.92
2019-06-08T18:08:45.640Z,17.90
2019-06-08T18:11:13.879Z,16.55
2019-06-08T18:13:44.004Z,16.15
2019-06-08T18:16:11.156Z,14.73
2019-06-08T18:18:40.751Z,14.03
2019-06-08T18:21:08.130Z,13.60
2019-06-08T18:23:39.170Z,14.00
2019-06-08T18:26:04.931Z,16.17
2019-06-08T18:28:32.187Z,16.48
2019-06-08T18:30:59.475Z,19.62
2019-06-08T18:33:27.067Z,20.15
2019-06-08T18:35:54.278Z,19.73
2019-06-08T18:38:21.554Z,18.57
2019-06-08T18:40:48.893Z,19.75
2019-06-08T18:43:17.067Z,19.25
2019-06-08T18:45:46.312Z,20.52
2019-06-08T18:48:14.247Z,19.15
2019-06-08T18:50:42.188Z,22.20
2019-06-08T18:53:10.518Z,20.08
2019-06-08T18:55:40.505Z,19.70
2019-06-08T18:58:18.985Z,21.65
2019-06-08T19:00:39.972Z,22.10
2019-06-08T19:03:07.172Z,19.25
2019-06-08T19:05:34.686Z,17.00
2019-06-08T19:08:02.933Z,17.92
2019-06-08T19:10:31.594Z,17.52
2019-06-08T19:12:58.828Z,17.80
2019-06-08T19:15:32.809Z,18.77
2019-06-08T19:18:00.055Z,18.95
2019-06-08T19:20:28.463Z,18.02
2019-06-08T19:22:57.882Z,18.75
2019-06-08T19:25:27.529Z,19.60
2019-06-08T19:27:54.415Z,19.40
2019-06-08T19:30:24.616Z,19.82
2019-06-08T19:32:52.468Z,19.80
2019-06-08T19:35:19.798Z,20.32
2019-06-08T19:37:53.265Z,19.10
2019-06-08T19:40:17.648Z,19.85
2019-06-08T19:42:53.535Z,19.40
2019-06-08T19:45:14.206Z,17.40
2019-06-08T19:47:42.490Z,18.80
2019-06-08T19:50:09.873Z,19.37
2019-06-08T19:52:41.035Z,18.05
2019-06-08T19:55:09.399Z,19.48
2019-06-08T19:57:36.735Z,20.37
2019-06-08T20:00:07.294Z,19.67
2019-06-08T20:02:34.444Z,20.02
2019-06-08T20:05:07.704Z,19.85
2019-06-08T20:07:37.877Z,19.60
2019-06-08T20:10:08.631Z,18.52
2019-06-08T20:15:08.517Z,17.45
2019-06-08T20:17:37.298Z,17.35
2019-06-08T20:20:07.744Z,15.63
2019-06-08T20:22:39.191Z,15.83
2019-06-08T20:25:10.574Z,13.80
2019-06-08T20:27:38.345Z,13.60
2019-06-08T20:30:09.612Z,12.88
2019-06-08T20:32:35.632Z,12.03
2019-06-08T20:35:08.040Z,11.93
2019-06-08T20:37:37.663Z,12.58
2019-06-08T20:40:12.099Z,12.30
2019-06-08T20:42:34.310Z,12.75
2019-06-08T20:45:01.759Z,12.18
2019-06-08T20:47:31.433Z,11.73
2019-06-08T20:49:58.824Z,12.10
2019-06-08T20:52:28.069Z,10.58
2019-06-08T20:54:55.368Z,10.63
2019-06-08T20:57:22.698Z,11.28
2019-06-08T20:59:54.014Z,10.82
2019-06-08T21:02:23.321Z,10.80
2019-06-08T21:04:54.224Z,10.70
2019-06-08T21:07:20.663Z,10.73
2019-06-08T21:09:50.649Z,11.33
2019-06-08T21:12:17.798Z,10.30
2019-06-08T21:14:48.937Z,10.55
2019-06-08T21:17:17.907Z,11.10
2019-06-08T21:19:44.758Z,11.38
2019-06-08T21:22:12.122Z,11.25
2019-06-08T21:24:39.535Z,11.43
2019-06-08T21:27:08.229Z,11.73
2019-06-08T21:29:47.642Z,12.20
2019-06-08T21:32:05.031Z,12.13
2019-06-08T21:34:32.421Z,10.53
2019-06-08T21:37:01.871Z,10.95
2019-06-08T21:39:31.140Z,11.30
2019-06-08T21:42:03.480Z,10.88
2019-06-08T21:44:32.783Z,12.20
2019-06-08T21:47:02.381Z,11.12
2019-06-08T21:49:29.595Z,10.95
2019-06-08T21:52:01.443Z,11.53
2019-06-08T21:54:29.539Z,11.55
2019-06-08T21:56:59.281Z,11.65
2019-06-08T21:59:27.627Z,11.30
2019-06-08T22:01:59.004Z,11.83
2019-06-08T22:04:27.670Z,11.90
2019-06-08T22:07:01.349Z,11.73
2019-06-08T22:09:28.796Z,12.00
2019-06-08T22:11:58.731Z,12.00
2019-06-08T22:14:27.347Z,11.57
2019-06-08T22:16:59.625Z,11.18
2019-06-08T22:19:23.768Z,10.63
2019-06-08T22:21:52.218Z,10.72
2019-06-08T22:24:24.128Z,11.65
2019-06-08T22:26:52.666Z,10.87
2019-06-08T22:29:22.967Z,10.85
2019-06-08T22:31:52.164Z,10.72
2019-06-08T22:34:19.901Z,11.83
2019-06-08T22:36:53.073Z,10.93
2019-06-08T22:39:21.638Z,10.82
2019-06-08T22:41:53.415Z,10.45
2019-06-08T22:47:44.091Z,8.25
2019-06-08T22:50:15.343Z,8.35
2019-06-08T22:52:47.648Z,8.28
2019-06-08T22:55:15.142Z,8.18
2019-06-08T22:57:47.914Z,7.90
2019-06-08T23:00:22.749Z,7.50
2019-06-08T23:02:49.735Z,6.42
2019-06-08T23:05:19.395Z,5.33
2019-06-08T23:07:52.387Z,5.50
2019-06-08T23:10:20.400Z,5.17
2019-06-08T23:12:47.966Z,5.83
2019-06-08T23:15:18.560Z,5.67
2019-06-08T23:17:50.537Z,6.50
2019-06-08T23:20:27.600Z,6.35
2019-06-08T23:23:08.791Z,6.42
2019-06-08T23:25:37.288Z,6.28
2019-06-08T23:28:09.901Z,6.95
2019-06-08T23:30:39.012Z,7.20
2019-06-08T23:33:11.524Z,6.97
2019-06-08T23:36:32.363Z,7.00
2019-06-08T23:38:24.592Z,6.22
2019-06-08T23:40:59.712Z,7.60
2019-06-08T23:43:29.249Z,6.35
2019-06-08T23:45:58.344Z,6.85
2019-06-08T23:48:28.908Z,7.22
2019-06-08T23:51:04.346Z,6.97
2019-06-08T23:53:31.491Z,7.00
2019-06-08T23:56:02.793Z,7.37
2019-06-08T23:58:32.693Z,6.55
